Terminal Aerodrome Forecast
Issued by NWS Sioux Falls, SD

Home | Current Version | Previous Version | Graphics & Text | Print | Product List | Glossary On
Versions: 1 2 3 4 5 6 7 8 9 10 11 12 13 14 15 16 17 18 19 20
000
FTUS43 KFSD 201747 RRA
TAFSUX
TAF
KSUX 201747Z 2018/2118 15008KT 3SM -DZ BR BKN003 OVC020
     FM202300 13006KT 4SM -RA OVC008
     FM210300 12006KT 3SM -RA BR OVC008
     FM210500 12006KT 2SM -RA BR OVC003
     FM210900 VRB03KT 1 1/2SM BR OVC003
     FM211500 VRB03KT 2SM BR OVC003
     FM211700 27006KT P6SM OVC008=

USA.gov is the U.S. government's official web portal to all federal, state and local government web resources and services.